createdAt,value
2018-08-28T00:02:17.292Z,5.10
2018-08-28T00:04:45.972Z,7.13
2018-08-28T00:07:15.094Z,5.10
2018-08-28T00:09:43.768Z,5.47
2018-08-28T00:12:12.459Z,5.37
2018-08-28T00:14:41.129Z,5.03
2018-08-28T00:17:09.890Z,5.43
2018-08-28T00:19:38.494Z,5.13
2018-08-28T00:22:07.188Z,5.00
2018-08-28T00:24:35.838Z,4.53
2018-08-28T00:27:04.460Z,4.60
2018-08-28T00:29:33.115Z,5.40
2018-08-28T00:32:01.952Z,4.87
2018-08-28T00:34:30.645Z,5.00
2018-08-28T00:36:59.303Z,5.13
2018-08-28T00:39:27.967Z,5.77
2018-08-28T00:41:56.622Z,4.93
2018-08-28T00:44:25.420Z,5.03
2018-08-28T00:46:54.083Z,4.83
2018-08-28T00:49:22.724Z,5.13
2018-08-28T00:51:51.418Z,4.93
2018-08-28T00:54:20.085Z,4.30
2018-08-28T00:56:48.720Z,4.70
2018-08-28T00:59:18.033Z,4.87
2018-08-28T01:01:46.628Z,5.10
2018-08-28T01:04:15.280Z,4.77
2018-08-28T01:06:43.935Z,4.40
2018-08-28T01:09:12.850Z,4.60
2018-08-28T01:11:41.523Z,4.70
2018-08-28T01:14:10.195Z,4.53
2018-08-28T01:16:38.865Z,5.30
2018-08-28T01:19:07.661Z,6.10
2018-08-28T01:21:36.274Z,5.23
2018-08-28T01:24:04.967Z,4.90
2018-08-28T01:26:33.675Z,4.33
2018-08-28T01:29:02.359Z,4.53
2018-08-28T01:31:31.044Z,4.17
2018-08-28T01:33:59.744Z,4.33
2018-08-28T01:36:28.423Z,5.63
2018-08-28T01:38:57.064Z,4.17
2018-08-28T01:41:25.788Z,4.53
2018-08-28T01:43:54.421Z,4.20
2018-08-28T01:46:23.039Z,5.70
2018-08-28T01:48:51.669Z,4.70
2018-08-28T01:51:20.599Z,5.33
2018-08-28T01:53:49.269Z,4.47
2018-08-28T01:56:17.919Z,4.70
2018-08-28T01:58:46.613Z,4.57
2018-08-28T02:01:15.257Z,4.47
2018-08-28T02:03:43.932Z,4.80
2018-08-28T02:06:12.735Z,5.30
2018-08-28T02:08:41.379Z,4.90
2018-08-28T02:11:10.012Z,4.53
2018-08-28T02:13:38.708Z,4.40
2018-08-28T02:16:07.349Z,5.23
2018-08-28T02:18:36.031Z,4.50
2018-08-28T02:21:04.675Z,4.83
2018-08-28T02:23:33.360Z,4.27
2018-08-28T02:26:02.009Z,4.90
2018-08-28T02:28:30.976Z,5.17
2018-08-28T02:30:59.622Z,4.17
2018-08-28T02:33:28.279Z,4.50
2018-08-28T02:35:56.894Z,4.77
2018-08-28T02:38:25.646Z,4.57
2018-08-28T02:40:54.323Z,4.57
2018-08-28T02:43:23.022Z,4.80
2018-08-28T02:45:51.699Z,5.17
2018-08-28T02:48:20.352Z,5.37
2018-08-28T02:50:49.371Z,4.57
2018-08-28T02:53:18.042Z,6.40
2018-08-28T02:55:46.929Z,5.77
2018-08-28T02:58:15.590Z,5.60
2018-08-28T03:00:44.209Z,6.13
2018-08-28T03:03:12.884Z,5.80
2018-08-28T03:05:41.532Z,5.20
2018-08-28T03:08:10.247Z,5.60
2018-08-28T03:10:38.985Z,5.50
2018-08-28T03:13:07.686Z,5.50
2018-08-28T03:15:36.442Z,5.80
2018-08-28T03:18:05.164Z,5.60
2018-08-28T03:20:34.388Z,5.50
2018-08-28T03:23:03.079Z,5.10
2018-08-28T03:25:31.766Z,5.63
2018-08-28T03:28:00.394Z,5.33
2018-08-28T03:30:29.056Z,5.80
2018-08-28T03:32:57.675Z,5.50
2018-08-28T03:35:26.343Z,6.40
2018-08-28T03:37:54.997Z,6.63
2018-08-28T03:40:23.683Z,5.80
2018-08-28T03:42:52.346Z,7.00
2018-08-28T03:45:21.082Z,7.10
2018-08-28T03:47:49.819Z,6.60
2018-08-28T03:50:18.486Z,6.13
2018-08-28T03:52:47.139Z,6.40
2018-08-28T03:55:15.812Z,6.23
2018-08-28T03:57:44.702Z,7.20
2018-08-28T04:00:13.409Z,6.13
2018-08-28T04:02:42.113Z,7.00
2018-08-28T04:05:10.964Z,7.17
2018-08-28T04:07:39.627Z,7.00
2018-08-28T04:10:08.364Z,7.03
2018-08-28T04:12:37.129Z,6.60
2018-08-28T04:15:06.091Z,5.90
2018-08-28T04:17:45.480Z,6.70
2018-08-28T04:20:14.146Z,7.57
2018-08-28T04:22:42.820Z,7.23
2018-08-28T04:25:11.489Z,6.27
2018-08-28T04:27:40.636Z,7.03
2018-08-28T04:30:09.915Z,7.07
2018-08-28T04:32:38.570Z,6.60
2018-08-28T04:35:07.227Z,6.27
2018-08-28T04:37:35.858Z,7.03
2018-08-28T04:40:05.234Z,6.70
2018-08-28T04:42:33.936Z,7.00
2018-08-28T04:45:02.880Z,7.67
2018-08-28T04:47:31.663Z,10.57
2018-08-28T04:50:00.261Z,6.73
2018-08-28T04:52:29.041Z,7.53
2018-08-28T04:54:57.768Z,7.53
2018-08-28T04:57:26.420Z,7.30
2018-08-28T04:59:55.084Z,6.80
2018-08-28T05:02:26.868Z,7.93
2018-08-28T05:04:55.537Z,7.07
2018-08-28T05:07:24.245Z,7.33
2018-08-28T05:09:52.964Z,7.30
2018-08-28T05:12:21.718Z,7.73
2018-08-28T05:14:50.436Z,7.60
2018-08-28T05:17:19.128Z,6.53
2018-08-28T05:19:47.828Z,7.63
2018-08-28T05:22:16.698Z,7.23
2018-08-28T05:24:45.527Z,7.37
2018-08-28T05:27:14.556Z,7.10
2018-08-28T05:29:43.373Z,6.67
2018-08-28T05:32:11.880Z,7.90
2018-08-28T05:34:41.895Z,7.80
2018-08-28T05:37:11.690Z,7.30
2018-08-28T05:39:40.503Z,7.77
2018-08-28T05:42:10.093Z,8.00
2018-08-28T05:44:38.910Z,7.93
2018-08-28T05:47:07.565Z,7.00
2018-08-28T05:49:36.331Z,8.83
2018-08-28T05:52:05.007Z,11.70
2018-08-28T05:54:33.635Z,7.50
2018-08-28T05:57:02.332Z,7.80
2018-08-28T05:59:31.129Z,7.63
2018-08-28T06:01:59.827Z,8.30
2018-08-28T06:04:28.587Z,9.50
2018-08-28T06:06:57.306Z,8.53
2018-08-28T06:09:25.951Z,8.10
2018-08-28T06:11:54.672Z,7.70
2018-08-28T06:14:23.902Z,8.60
2018-08-28T06:16:52.569Z,7.97
2018-08-28T06:19:21.227Z,8.63
2018-08-28T06:21:49.944Z,8.73
2018-08-28T06:24:18.680Z,8.17
2018-08-28T06:26:47.421Z,7.17
2018-08-28T06:29:16.107Z,7.70
2018-08-28T06:31:44.731Z,6.90
2018-08-28T06:34:13.404Z,7.40
2018-08-28T06:36:42.060Z,6.47
2018-08-28T06:39:11.043Z,7.13
2018-08-28T06:41:40.116Z,6.73
2018-08-28T06:44:08.808Z,7.37
2018-08-28T06:46:37.443Z,6.40
2018-08-28T06:49:06.105Z,6.53
2018-08-28T06:51:35.379Z,6.40
2018-08-28T06:54:04.694Z,6.30
2018-08-28T06:56:33.335Z,7.10
2018-08-28T06:59:02.032Z,5.40
2018-08-28T07:01:30.692Z,5.90
2018-08-28T07:03:59.449Z,5.63
2018-08-28T07:06:28.108Z,6.20
2018-08-28T07:08:56.808Z,6.23
2018-08-28T07:11:25.472Z,5.97
2018-08-28T07:13:54.166Z,4.83
2018-08-28T07:16:22.849Z,5.07
2018-08-28T07:18:51.758Z,5.07
2018-08-28T07:21:20.233Z,5.27
2018-08-28T07:23:48.938Z,5.30
2018-08-28T07:26:17.684Z,4.33
2018-08-28T07:28:46.526Z,5.80
2018-08-28T07:31:15.201Z,5.07
2018-08-28T07:33:43.917Z,4.80
2018-08-28T07:36:12.634Z,4.63
2018-08-28T07:38:41.328Z,5.17
2018-08-28T07:41:10.032Z,4.73
2018-08-28T07:43:38.752Z,4.97
2018-08-28T07:46:07.438Z,4.17
2018-08-28T07:48:36.092Z,4.37
2018-08-28T07:51:04.798Z,4.07
2018-08-28T07:53:33.523Z,5.10
2018-08-28T07:56:02.180Z,3.63
2018-08-28T07:58:30.853Z,5.37
2018-08-28T08:00:59.520Z,4.77
2018-08-28T08:03:28.249Z,4.00
2018-08-28T08:05:56.935Z,3.73
2018-08-28T08:08:25.622Z,4.37
2018-08-28T08:10:54.512Z,3.63
2018-08-28T08:13:23.449Z,4.17
2018-08-28T08:15:52.119Z,3.97
2018-08-28T08:18:22.028Z,4.03
2018-08-28T08:20:50.759Z,3.90
2018-08-28T08:23:19.462Z,4.10
2018-08-28T08:25:48.444Z,3.57
2018-08-28T08:28:17.548Z,4.20
2018-08-28T08:30:46.131Z,3.60
2018-08-28T08:33:14.877Z,4.13
2018-08-28T08:35:43.744Z,4.70
2018-08-28T08:38:14.196Z,3.30
2018-08-28T08:40:43.070Z,2.83
2018-08-28T08:43:11.716Z,3.33
2018-08-28T08:45:40.429Z,3.33
2018-08-28T08:48:09.132Z,3.30
2018-08-28T08:50:37.844Z,3.63
2018-08-28T08:53:06.481Z,3.70
2018-08-28T08:55:35.175Z,3.53
2018-08-28T08:58:03.844Z,3.80
2018-08-28T09:00:32.509Z,3.60
2018-08-28T09:03:01.161Z,4.10
2018-08-28T09:05:29.842Z,3.80
2018-08-28T09:07:58.511Z,2.70
2018-08-28T09:10:27.173Z,3.20
2018-08-28T09:12:55.831Z,3.27
2018-08-28T09:15:24.521Z,3.00
2018-08-28T09:17:53.223Z,3.20
2018-08-28T09:20:21.873Z,3.37
2018-08-28T09:22:50.595Z,3.80
2018-08-28T09:25:19.239Z,3.30
2018-08-28T09:27:47.895Z,3.50
2018-08-28T09:30:16.720Z,5.70
2018-08-28T09:32:45.384Z,3.73
2018-08-28T09:35:14.033Z,3.13
2018-08-28T09:37:42.708Z,2.80
2018-08-28T09:40:11.356Z,2.53
2018-08-28T09:42:40.090Z,3.17
2018-08-28T09:45:08.812Z,2.50
2018-08-28T09:47:37.500Z,3.43
2018-08-28T09:50:06.374Z,3.70
2018-08-28T09:52:35.818Z,2.97
2018-08-28T09:55:04.484Z,3.50
2018-08-28T09:57:33.220Z,2.80
2018-08-28T10:00:01.888Z,2.80
2018-08-28T10:02:30.551Z,2.90
2018-08-28T10:04:59.252Z,2.50
2018-08-28T10:07:27.996Z,3.60
2018-08-28T10:09:56.661Z,2.67
2018-08-28T10:12:25.396Z,3.27
2018-08-28T10:14:54.276Z,3.10
2018-08-28T10:17:23.094Z,2.93
2018-08-28T10:19:51.733Z,3.30
2018-08-28T10:22:20.725Z,3.30
2018-08-28T10:24:49.489Z,3.40
2018-08-28T10:27:18.318Z,3.47
2018-08-28T10:29:47.097Z,2.83
2018-08-28T10:32:15.809Z,3.70
2018-08-28T10:34:44.525Z,3.07
2018-08-28T10:37:13.192Z,3.30
2018-08-28T10:39:42.339Z,3.13
2018-08-28T10:42:10.987Z,3.17
2018-08-28T10:44:39.637Z,3.27
2018-08-28T10:47:08.320Z,2.90
2018-08-28T10:49:37.028Z,3.57
2018-08-28T10:52:05.764Z,3.20
2018-08-28T10:54:34.440Z,3.23
2018-08-28T10:57:03.256Z,3.20
2018-08-28T10:59:32.033Z,2.90
2018-08-28T11:02:00.751Z,2.80
2018-08-28T11:04:29.651Z,2.70
2018-08-28T11:06:58.437Z,2.63
2018-08-28T11:09:27.144Z,3.07
2018-08-28T11:11:55.872Z,3.23
2018-08-28T11:14:24.540Z,3.13
2018-08-28T11:16:53.220Z,2.97
2018-08-28T11:19:21.976Z,3.07
2018-08-28T11:21:50.644Z,2.87
2018-08-28T11:24:19.306Z,2.90
2018-08-28T11:26:48.184Z,2.77
2018-08-28T11:29:16.925Z,2.60
2018-08-28T11:31:45.628Z,2.93
2018-08-28T11:34:14.331Z,2.83
2018-08-28T11:36:42.963Z,2.70
2018-08-28T11:39:11.722Z,2.67
2018-08-28T11:41:40.372Z,2.90
2018-08-28T11:44:09.036Z,4.20
2018-08-28T11:46:37.694Z,3.60
2018-08-28T11:49:06.368Z,3.23
2018-08-28T11:51:35.011Z,3.17
2018-08-28T11:54:03.671Z,3.70
2018-08-28T11:56:32.324Z,2.70
2018-08-28T11:59:01.019Z,3.10
2018-08-28T12:01:29.729Z,2.93
2018-08-28T12:03:58.411Z,2.77
2018-08-28T12:06:27.072Z,2.50
2018-08-28T12:08:55.742Z,2.37
2018-08-28T12:11:24.386Z,2.87
2018-08-28T12:13:53.168Z,3.07
2018-08-28T12:16:21.783Z,2.87
2018-08-28T12:18:50.495Z,3.53
2018-08-28T12:21:19.120Z,3.53
2018-08-28T12:23:47.780Z,2.80
2018-08-28T12:26:16.424Z,2.73
2018-08-28T12:28:45.119Z,2.50
2018-08-28T12:31:13.791Z,3.23
2018-08-28T12:33:42.399Z,3.87
2018-08-28T12:36:11.040Z,3.20
2018-08-28T12:38:39.685Z,2.50
2018-08-28T12:41:08.357Z,2.93
2018-08-28T12:43:37.112Z,3.20
2018-08-28T12:46:06.145Z,3.70
2018-08-28T12:48:34.792Z,2.70
2018-08-28T12:51:03.501Z,3.40
2018-08-28T12:53:32.182Z,3.13
2018-08-28T12:56:00.859Z,3.60
2018-08-28T12:58:29.512Z,3.07
2018-08-28T13:00:58.194Z,4.53
2018-08-28T13:03:26.825Z,3.47
2018-08-28T13:05:55.517Z,3.37
2018-08-28T13:08:24.240Z,2.97
2018-08-28T13:10:52.918Z,3.57
2018-08-28T13:13:21.575Z,2.90
2018-08-28T13:15:50.217Z,3.10
2018-08-28T13:18:18.867Z,3.20
2018-08-28T13:20:47.580Z,2.97
2018-08-28T13:23:16.252Z,2.70
2018-08-28T13:25:44.995Z,3.00
2018-08-28T13:28:13.565Z,3.10
2018-08-28T13:30:42.271Z,7.90
2018-08-28T13:33:11.223Z,9.30
2018-08-28T13:35:39.935Z,9.83
2018-08-28T13:38:08.550Z,6.80
2018-08-28T13:40:37.362Z,11.17
2018-08-28T13:43:06.203Z,12.27
2018-08-28T13:45:34.877Z,9.07
2018-08-28T13:48:03.597Z,5.97
2018-08-28T13:50:32.263Z,4.93
2018-08-28T13:53:00.924Z,4.40
2018-08-28T13:55:29.944Z,3.93
2018-08-28T13:57:58.624Z,5.60
2018-08-28T14:00:27.295Z,5.57
2018-08-28T14:02:55.940Z,4.03
2018-08-28T14:05:24.643Z,7.33
2018-08-28T14:07:53.303Z,6.13
2018-08-28T14:10:22.002Z,33.07
2018-08-28T14:12:50.693Z,12.67
2018-08-28T14:15:19.369Z,9.40
2018-08-28T14:17:48.080Z,32.53
2018-08-28T14:20:16.804Z,22.50
2018-08-28T14:22:45.528Z,17.67
2018-08-28T14:25:14.154Z,39.93
2018-08-28T14:27:42.903Z,6.80
2018-08-28T14:30:11.550Z,3.90
2018-08-28T14:32:40.189Z,3.70
2018-08-28T14:35:08.804Z,3.30
2018-08-28T14:37:37.476Z,3.67
2018-08-28T14:40:06.166Z,3.60
2018-08-28T14:42:34.855Z,3.20
2018-08-28T14:45:03.486Z,4.33
2018-08-28T14:47:32.156Z,3.70
2018-08-28T14:50:01.033Z,4.30
2018-08-28T14:52:29.616Z,4.57
2018-08-28T14:54:58.220Z,3.70
2018-08-28T14:57:26.859Z,3.80
2018-08-28T14:59:55.579Z,3.70
2018-08-28T15:02:24.304Z,3.83
2018-08-28T15:04:52.975Z,3.50
2018-08-28T15:07:21.647Z,4.40
2018-08-28T15:09:50.317Z,3.73
2018-08-28T15:12:19.687Z,3.03
2018-08-28T15:14:48.366Z,4.13
2018-08-28T15:17:17.101Z,3.10
2018-08-28T15:19:46.976Z,3.43
2018-08-28T15:22:15.624Z,4.60
2018-08-28T15:24:44.314Z,5.77
2018-08-28T15:27:13.054Z,5.40
2018-08-28T15:29:41.650Z,5.60
2018-08-28T15:32:10.332Z,9.50
2018-08-28T15:34:39.029Z,13.20
2018-08-28T15:37:07.693Z,6.50
2018-08-28T15:39:36.719Z,5.03
2018-08-28T15:42:05.569Z,4.40
2018-08-28T15:44:34.248Z,3.80
2018-08-28T15:47:04.045Z,5.27
2018-08-28T15:49:32.727Z,4.67
2018-08-28T15:52:01.541Z,4.30
2018-08-28T15:54:30.358Z,4.07
2018-08-28T15:56:59.915Z,4.03
2018-08-28T15:59:28.613Z,4.47
2018-08-28T16:01:58.721Z,4.33
2018-08-28T16:04:28.551Z,4.50
2018-08-28T16:06:57.988Z,4.33
2018-08-28T16:09:26.707Z,3.97
2018-08-28T16:11:57.164Z,3.63
2018-08-28T16:14:26.072Z,3.50
2018-08-28T16:16:55.499Z,3.37
2018-08-28T16:19:24.214Z,2.93
2018-08-28T16:21:54.738Z,3.40
2018-08-28T16:24:23.667Z,3.63
2018-08-28T16:26:53.097Z,3.83
2018-08-28T16:29:22.125Z,3.27
2018-08-28T16:31:52.042Z,3.10
2018-08-28T16:34:21.044Z,3.63
2018-08-28T16:36:49.811Z,3.00
2018-08-28T16:39:25.182Z,3.20
2018-08-28T16:41:53.855Z,3.63
2018-08-28T16:44:22.585Z,4.30
2018-08-28T16:46:51.352Z,3.40
2018-08-28T16:49:19.999Z,3.10
2018-08-28T16:51:48.663Z,46.73
2018-08-28T16:54:18.548Z,90.60
2018-08-28T16:56:47.229Z,17.47
2018-08-28T16:59:15.996Z,47.17
2018-08-28T17:01:44.832Z,47.80
2018-08-28T17:04:13.624Z,68.70
2018-08-28T17:06:42.300Z,44.10
2018-08-28T17:09:11.164Z,14.90
2018-08-28T17:11:39.833Z,30.30
2018-08-28T17:14:08.515Z,11.50
2018-08-28T17:16:37.234Z,16.60
2018-08-28T17:19:06.014Z,8.30
2018-08-28T17:21:34.650Z,10.00
2018-08-28T17:24:03.344Z,7.63
2018-08-28T17:26:32.038Z,6.50
2018-08-28T17:29:00.696Z,3.93
2018-08-28T17:31:29.684Z,3.40
2018-08-28T17:33:58.468Z,4.17
2018-08-28T17:36:27.166Z,3.27
2018-08-28T17:38:55.935Z,3.60
2018-08-28T17:41:24.643Z,2.93
2018-08-28T17:43:53.358Z,3.77
2018-08-28T17:46:21.991Z,3.50
2018-08-28T17:48:50.685Z,3.70
2018-08-28T17:51:19.337Z,3.20
2018-08-28T17:53:48.024Z,3.40
2018-08-28T17:56:16.693Z,3.17
2018-08-28T17:58:45.363Z,4.50
2018-08-28T18:01:14.179Z,44.10
2018-08-28T18:03:42.934Z,101.20
2018-08-28T18:06:11.605Z,37.70
2018-08-28T18:08:40.335Z,6.00
2018-08-28T18:11:08.983Z,4.00
2018-08-28T18:13:37.653Z,3.60
2018-08-28T18:16:06.345Z,3.47
2018-08-28T18:18:35.067Z,3.10
2018-08-28T18:21:03.753Z,3.50
2018-08-28T18:23:33.014Z,2.90
2018-08-28T18:26:01.815Z,3.43
2018-08-28T18:28:31.341Z,3.30
2018-08-28T18:31:00.091Z,3.47
2018-08-28T18:33:28.761Z,3.73
2018-08-28T18:35:57.873Z,3.47
2018-08-28T18:38:26.693Z,7.43
2018-08-28T18:40:55.566Z,6.33
2018-08-28T18:43:24.177Z,8.53
2018-08-28T18:45:52.875Z,8.97
2018-08-28T18:48:22.856Z,12.90
2018-08-28T18:50:51.934Z,24.80
2018-08-28T18:53:21.539Z,18.57
2018-08-28T18:55:50.261Z,15.07
2018-08-28T18:58:19.876Z,7.60
2018-08-28T19:00:48.616Z,25.10
2018-08-28T19:03:17.510Z,16.53
2018-08-28T19:05:46.250Z,26.27
2018-08-28T19:08:15.266Z,34.60
2018-08-28T19:10:44.136Z,20.10
2018-08-28T19:13:12.859Z,19.20
2018-08-28T19:15:41.760Z,8.23
2018-08-28T19:18:10.443Z,6.80
2018-08-28T19:20:39.252Z,12.20
2018-08-28T19:23:07.934Z,5.43
2018-08-28T19:25:36.729Z,7.60
2018-08-28T19:28:05.462Z,6.40
2018-08-28T19:30:34.148Z,5.40
2018-08-28T19:33:02.913Z,5.73
2018-08-28T19:35:31.589Z,5.80
2018-08-28T19:38:00.256Z,5.83
2018-08-28T19:40:28.931Z,4.10
2018-08-28T19:42:57.639Z,14.13
2018-08-28T19:45:26.349Z,15.17
2018-08-28T19:47:55.156Z,25.73
2018-08-28T19:50:23.876Z,32.23
2018-08-28T19:52:52.560Z,22.77
2018-08-28T19:55:21.566Z,52.43
2018-08-28T19:57:50.539Z,23.80
2018-08-28T20:00:19.559Z,39.20
2018-08-28T20:02:48.374Z,67.27
2018-08-28T20:05:17.105Z,28.57
2018-08-28T20:07:45.799Z,12.00
2018-08-28T20:10:16.147Z,8.40
2018-08-28T20:12:46.221Z,6.53
2018-08-28T20:15:14.895Z,8.80
2018-08-28T20:17:43.717Z,5.90
2018-08-28T20:20:12.489Z,5.47
2018-08-28T20:22:41.308Z,4.80
2018-08-28T20:25:09.983Z,5.30
2018-08-28T20:27:38.608Z,5.97
2018-08-28T20:30:08.303Z,6.07
2018-08-28T20:32:36.900Z,5.60
2018-08-28T20:35:06.115Z,5.50
2018-08-28T20:37:35.231Z,5.03
2018-08-28T20:40:03.935Z,4.80
2018-08-28T20:42:32.696Z,4.57
2018-08-28T20:45:01.428Z,5.50
2018-08-28T20:47:30.097Z,5.07
2018-08-28T20:49:58.805Z,5.33
2018-08-28T20:52:27.503Z,4.63
2018-08-28T20:54:57.311Z,5.50
2018-08-28T20:57:27.040Z,4.90
2018-08-28T20:59:55.723Z,5.80
2018-08-28T21:02:24.533Z,4.80
2018-08-28T21:04:53.319Z,5.93
2018-08-28T21:07:22.302Z,5.87
2018-08-28T21:09:50.991Z,9.50
2018-08-28T21:12:19.862Z,7.20
2018-08-28T21:14:48.660Z,15.73
2018-08-28T21:17:17.320Z,19.07
2018-08-28T21:19:45.996Z,11.30
2018-08-28T21:22:14.650Z,16.50
2018-08-28T21:24:43.346Z,11.20
2018-08-28T21:27:12.701Z,9.50
2018-08-28T21:29:41.394Z,15.67
2018-08-28T21:32:10.275Z,12.07
2018-08-28T21:34:38.931Z,5.57
2018-08-28T21:37:07.595Z,4.77
2018-08-28T21:39:36.269Z,5.13
2018-08-28T21:42:05.341Z,4.43
2018-08-28T21:44:33.984Z,4.60
2018-08-28T21:47:02.687Z,4.57
2018-08-28T21:49:31.334Z,4.30
2018-08-28T21:52:00.060Z,5.17
2018-08-28T21:54:28.737Z,5.30
2018-08-28T21:56:57.413Z,4.47
2018-08-28T21:59:26.048Z,5.60
2018-08-28T22:01:54.681Z,5.40
2018-08-28T22:04:23.336Z,4.53
2018-08-28T22:06:57.363Z,4.00
2018-08-28T22:09:26.356Z,4.47
2018-08-28T22:11:55.011Z,4.23
2018-08-28T22:14:23.681Z,4.00
2018-08-28T22:16:52.411Z,4.80
2018-08-28T22:19:21.096Z,4.40
2018-08-28T22:21:49.822Z,4.13
2018-08-28T22:24:18.512Z,3.93
2018-08-28T22:26:47.180Z,5.70
2018-08-28T22:29:15.807Z,4.80
2018-08-28T22:31:44.564Z,4.90
2018-08-28T22:34:13.187Z,5.70
2018-08-28T22:36:41.836Z,5.00
2018-08-28T22:39:10.476Z,6.20
2018-08-28T22:41:39.624Z,5.23
2018-08-28T22:44:08.336Z,6.13
2018-08-28T22:46:37.023Z,6.37
2018-08-28T22:49:05.741Z,6.20
2018-08-28T22:51:34.467Z,5.87
2018-08-28T22:54:03.158Z,6.50
2018-08-28T22:56:31.852Z,5.47
2018-08-28T22:59:00.620Z,5.73
2018-08-28T23:01:29.313Z,5.97
2018-08-28T23:03:57.987Z,5.60
2018-08-28T23:06:26.643Z,4.80
2018-08-28T23:08:55.289Z,5.93
2018-08-28T23:11:24.478Z,9.30
2018-08-28T23:13:53.190Z,5.77
2018-08-28T23:16:22.324Z,6.00
2018-08-28T23:18:50.988Z,5.80
2018-08-28T23:21:19.665Z,5.43
2018-08-28T23:23:49.179Z,5.83
2018-08-28T23:26:17.828Z,5.50
2018-08-28T23:28:46.456Z,5.70
2018-08-28T23:31:15.208Z,4.97
2018-08-28T23:33:43.886Z,6.33
2018-08-28T23:36:12.652Z,5.23
2018-08-28T23:38:41.293Z,5.63
2018-08-28T23:41:09.965Z,6.00
2018-08-28T23:43:38.683Z,5.03
2018-08-28T23:46:07.368Z,6.27
2018-08-28T23:48:36.054Z,6.37
2018-08-28T23:51:04.757Z,6.60
2018-08-28T23:53:33.525Z,7.27
2018-08-28T23:56:02.207Z,7.77
2018-08-28T23:58:30.881Z,6.93
